Tatitlek, AK (99677)

10:58 PM AKST on February 07, 2016 (GMT -0900)
Valdez | | Change Station
CLOSE
Current Station
Airport
Location: Valdez Airport,
Elevation: 121 ft
Nearby Weather Stations

Elev 121 ft 61.13 °N, 146.25 °W | Updated 2 minutes ago

Overcast
Overcast
34 °F
Feels Like 29 °F
N
6
Wind Variable Wind from ESE

Today
High -- | Low -- °F
--% Chance of Precip.
Yesterday
High -- | Low -- °F
Precip. -- in
Pressure 29.84 in
Visibility 10.0 miles
Clouds Mostly Cloudy 3400 ft
Mostly Cloudy 4200 ft
Overcast 5000 ft
Windchill 29 °F
Dew Point 25 °F
Humidity 70%
Rainfall 0.03 in
Snow Depth Not available.
8:53 AM 5:12 PM
Waning Crescent, 0% visible
METAR PAVD 080756Z 12005KT 10SM BKN034 BKN042 OVC050 01/M04 A2984 RMK AO1
Pressure 29.84 in
Visibility 10.0 miles
Clouds Mostly Cloudy 3400 ft
Mostly Cloudy 4200 ft
Overcast 5000 ft
Windchill 29 °F
Dew Point 25 °F
Humidity 70%
Rainfall 0.03 in
Snow Depth Not available.
8:53 AM 5:12 PM
Waning Crescent, 0% visible
METAR PAVD 080756Z 12005KT 10SM BKN034 BKN042 OVC050 01/M04 A2984 RMK AO1

10-Day Weather Forecast

Almanac

Astronomy

Feb. 07, 2016 Rise Set
Actual Time
Civil Twilight
Nautical Twilight
Astronomical Twilight
Moon
Length of Visible Light
Length of Day
Tomorrow will be .
, % of the Moon is Illuminated

Today's Extremes

State Highs State Lows

Community

WunderPhotos

Upload Photos

1,891,394 photos uploaded!

WunderBlog® & News

Nearby

Air Quality

  Air Quality AQ Index Pollutant
Not available.

Snow Depth

Station Depth Elevation

Earthquake Activity

City Distance Mag. Time & Date
Minimum magnitude displayed is 2.5.

Coastal Water Temperatures

Place Temperature

Stations

Nearby Weather Stations

Station Location Temp. Windchill Dew Point Humidity Wind Precip. Elev Updated Type
                   

Watches & Warnings

There are currently no watches in effect.